createdAt,value
2018-08-17T00:01:19.046Z,99.90
2018-08-17T00:03:56.302Z,99.90
2018-08-17T00:06:33.678Z,99.90
2018-08-17T00:09:11.738Z,99.90
2018-08-17T00:11:47.920Z,99.90
2018-08-17T00:14:25.461Z,99.90
2018-08-17T00:17:06.962Z,99.90
2018-08-17T00:19:43.932Z,99.90
2018-08-17T00:22:25.525Z,99.90
2018-08-17T00:25:02.853Z,99.90
2018-08-17T00:27:39.040Z,99.90
2018-08-17T00:30:15.380Z,99.90
2018-08-17T00:32:53.031Z,99.90
2018-08-17T00:35:30.310Z,99.90
2018-08-17T00:38:07.574Z,99.90
2018-08-17T00:40:45.171Z,99.90
2018-08-17T00:43:22.477Z,99.90
2018-08-17T00:45:58.437Z,99.90
2018-08-17T00:48:35.962Z,99.90
2018-08-17T00:51:13.556Z,99.90
2018-08-17T00:53:49.079Z,99.90
2018-08-17T00:56:25.833Z,99.90
2018-08-17T00:59:02.236Z,99.90
2018-08-17T01:01:37.820Z,99.90
2018-08-17T01:04:14.128Z,99.90
2018-08-17T01:06:50.386Z,99.90
2018-08-17T01:09:27.818Z,99.90
2018-08-17T01:12:04.062Z,99.90
2018-08-17T01:14:39.732Z,1.00
2018-08-17T01:17:15.937Z,1.00
2018-08-17T01:19:51.821Z,1.00
2018-08-17T01:22:28.689Z,1.00
2018-08-17T01:25:08.460Z,1.00
2018-08-17T01:27:45.604Z,1.00
2018-08-17T01:30:21.676Z,1.00
2018-08-17T01:32:58.658Z,1.00
2018-08-17T01:35:34.497Z,1.00
2018-08-17T01:38:11.409Z,1.00
2018-08-17T01:40:51.169Z,1.00
2018-08-17T01:43:27.156Z,1.00
2018-08-17T01:46:02.926Z,1.00
2018-08-17T01:48:38.404Z,1.00
2018-08-17T01:51:14.744Z,1.00
2018-08-17T01:53:54.000Z,1.00
2018-08-17T01:56:29.806Z,1.00
2018-08-17T01:59:08.861Z,1.00
2018-08-17T02:01:44.799Z,1.00
2018-08-17T02:04:21.473Z,1.00
2018-08-17T02:06:57.137Z,1.00
2018-08-17T02:09:34.354Z,1.00
2018-08-17T02:12:11.225Z,1.00
2018-08-17T02:14:47.632Z,1.00
2018-08-17T02:17:23.610Z,1.00
2018-08-17T02:20:00.679Z,1.00
2018-08-17T02:22:37.600Z,1.00
2018-08-17T02:25:13.310Z,1.00
2018-08-17T02:27:49.572Z,1.00
2018-08-17T02:30:25.559Z,1.00
2018-08-17T02:33:01.647Z,1.00
2018-08-17T02:35:38.946Z,1.00
2018-08-17T02:38:14.776Z,1.00
2018-08-17T02:40:54.012Z,1.00
2018-08-17T02:43:29.658Z,1.00
2018-08-17T02:46:07.315Z,1.00
2018-08-17T02:48:43.210Z,1.00
2018-08-17T02:51:18.633Z,1.00
2018-08-17T02:53:54.031Z,1.00
2018-08-17T02:56:31.354Z,1.00
2018-08-17T02:59:10.401Z,1.00
2018-08-17T03:01:48.582Z,1.00
2018-08-17T03:04:24.971Z,1.00
2018-08-17T03:07:02.785Z,1.00
2018-08-17T03:09:40.115Z,1.00
2018-08-17T03:12:17.444Z,1.00
2018-08-17T03:14:53.412Z,1.00
2018-08-17T03:17:31.294Z,1.00
2018-08-17T03:20:08.872Z,1.00
2018-08-17T03:22:44.617Z,1.00
2018-08-17T03:25:20.336Z,1.00
2018-08-17T03:27:57.834Z,1.00
2018-08-17T03:30:33.766Z,1.00
2018-08-17T03:33:09.889Z,1.00
2018-08-17T03:35:47.370Z,1.00
2018-08-17T03:38:24.898Z,1.00
2018-08-17T03:41:01.482Z,1.00
2018-08-17T03:43:38.063Z,1.00
2018-08-17T03:46:14.688Z,1.00
2018-08-17T03:48:50.162Z,1.00
2018-08-17T03:51:27.521Z,1.00
2018-08-17T03:54:04.973Z,1.00
2018-08-17T03:56:42.720Z,1.00
2018-08-17T03:59:24.676Z,1.00
2018-08-17T04:02:02.788Z,1.00
2018-08-17T04:04:41.090Z,1.00
2018-08-17T04:07:16.922Z,1.00
2018-08-17T04:09:53.754Z,1.00
2018-08-17T04:12:29.767Z,1.00
2018-08-17T04:15:08.033Z,1.00
2018-08-17T04:17:44.353Z,1.00
2018-08-17T04:20:20.590Z,1.00
2018-08-17T04:22:56.229Z,1.00
2018-08-17T04:25:33.276Z,1.00
2018-08-17T04:28:09.988Z,1.00
2018-08-17T04:30:48.971Z,1.00
2018-08-17T04:33:26.617Z,1.00
2018-08-17T04:36:04.362Z,1.00
2018-08-17T04:38:43.830Z,1.00
2018-08-17T04:41:20.906Z,1.00
2018-08-17T04:43:57.599Z,1.00
2018-08-17T04:46:34.694Z,1.00
2018-08-17T04:49:11.716Z,1.00
2018-08-17T04:51:47.586Z,1.00
2018-08-17T04:54:23.858Z,1.00
2018-08-17T04:57:00.717Z,1.00
2018-08-17T04:59:37.699Z,1.00
2018-08-17T05:02:14.773Z,1.00
2018-08-17T05:04:56.401Z,1.00
2018-08-17T05:07:32.016Z,1.00
2018-08-17T05:10:08.840Z,1.00
2018-08-17T05:12:45.644Z,1.00
2018-08-17T05:15:22.654Z,1.00
2018-08-17T05:17:59.448Z,1.00
2018-08-17T05:20:35.327Z,1.00
2018-08-17T05:23:11.130Z,1.00
2018-08-17T05:25:48.477Z,1.00
2018-08-17T05:28:25.496Z,1.00
2018-08-17T05:31:02.326Z,1.00
2018-08-17T05:33:39.264Z,1.00
2018-08-17T05:36:14.821Z,1.00
2018-08-17T05:38:51.709Z,1.00
2018-08-17T05:41:27.509Z,1.00
2018-08-17T05:44:04.442Z,1.00
2018-08-17T05:46:41.365Z,1.00
2018-08-17T05:49:20.641Z,1.00
2018-08-17T05:51:58.340Z,1.00
2018-08-17T05:54:34.881Z,1.00
2018-08-17T05:57:10.892Z,1.00
2018-08-17T05:59:48.138Z,1.00
2018-08-17T06:02:29.754Z,1.00
2018-08-17T06:05:07.477Z,1.00
2018-08-17T06:07:44.345Z,1.00
2018-08-17T06:10:21.055Z,1.00
2018-08-17T06:12:58.333Z,1.00
2018-08-17T06:15:35.408Z,1.00
2018-08-17T06:18:12.223Z,1.00
2018-08-17T06:20:49.214Z,1.00
2018-08-17T06:23:28.398Z,1.00
2018-08-17T06:26:04.684Z,1.00
2018-08-17T06:28:40.803Z,1.00
2018-08-17T06:31:17.760Z,1.00
2018-08-17T06:33:53.386Z,1.00
2018-08-17T06:36:30.376Z,1.00
2018-08-17T06:39:09.098Z,1.00
2018-08-17T06:41:46.335Z,1.00
2018-08-17T06:44:23.441Z,1.00
2018-08-17T06:47:00.399Z,1.00
2018-08-17T06:49:36.991Z,1.00
2018-08-17T06:52:12.744Z,1.00
2018-08-17T06:54:48.553Z,1.00
2018-08-17T06:57:26.661Z,1.00
2018-08-17T07:00:04.013Z,1.00
2018-08-17T07:02:40.575Z,1.00
2018-08-17T07:05:18.947Z,1.00
2018-08-17T07:07:56.883Z,1.00
2018-08-17T07:10:34.780Z,1.00
2018-08-17T07:13:12.101Z,1.00
2018-08-17T07:15:51.781Z,1.00
2018-08-17T07:18:27.352Z,1.00
2018-08-17T07:21:04.574Z,1.00
2018-08-17T07:23:41.910Z,1.00
2018-08-17T07:26:16.600Z,1.00
2018-08-17T07:28:52.367Z,1.00
2018-08-17T07:31:30.006Z,1.00
2018-08-17T07:34:07.449Z,1.00
2018-08-17T07:36:43.478Z,1.00
2018-08-17T07:39:22.376Z,1.00
2018-08-17T07:41:58.259Z,1.00
2018-08-17T07:44:34.107Z,1.00
2018-08-17T07:47:11.317Z,1.00
2018-08-17T07:49:46.908Z,1.00
2018-08-17T07:52:23.495Z,1.00
2018-08-17T07:55:03.927Z,1.00
2018-08-17T07:57:41.298Z,1.00
2018-08-17T08:00:18.433Z,1.00
2018-08-17T08:02:55.947Z,1.00
2018-08-17T08:05:37.197Z,1.00
2018-08-17T08:08:13.239Z,1.00
2018-08-17T08:10:49.617Z,1.00
2018-08-17T08:13:25.643Z,1.00
2018-08-17T08:16:05.171Z,1.00
2018-08-17T08:18:45.034Z,1.00
2018-08-17T08:21:21.991Z,1.00
2018-08-17T08:24:01.667Z,1.00
2018-08-17T08:26:38.376Z,1.00
2018-08-17T08:29:15.265Z,1.00
2018-08-17T08:31:52.355Z,1.00
2018-08-17T08:34:28.682Z,1.00
2018-08-17T08:37:06.380Z,1.00
2018-08-17T08:39:43.651Z,1.00
2018-08-17T08:42:21.387Z,1.00
2018-08-17T08:44:58.544Z,1.00
2018-08-17T08:47:35.847Z,1.00
2018-08-17T08:50:12.216Z,1.00
2018-08-17T08:52:49.851Z,1.00
2018-08-17T08:55:25.959Z,1.00
2018-08-17T08:58:03.840Z,1.00
2018-08-17T09:00:39.714Z,1.00
2018-08-17T09:03:16.016Z,1.00
2018-08-17T09:05:52.562Z,1.00
2018-08-17T09:08:28.393Z,1.00
2018-08-17T09:11:04.474Z,1.00
2018-08-17T09:13:40.620Z,1.00
2018-08-17T09:16:17.407Z,1.00
2018-08-17T09:18:54.707Z,1.00
2018-08-17T09:21:35.324Z,1.00
2018-08-17T09:24:12.360Z,1.00
2018-08-17T09:26:51.850Z,1.00
2018-08-17T09:29:28.783Z,1.00
2018-08-17T09:32:05.489Z,1.00
2018-08-17T09:34:47.678Z,1.00
2018-08-17T09:37:25.135Z,1.00
2018-08-17T09:40:03.105Z,1.00
2018-08-17T09:42:40.817Z,1.00
2018-08-17T09:45:18.170Z,1.00
2018-08-17T09:47:54.318Z,1.00
2018-08-17T09:50:31.793Z,1.00
2018-08-17T09:53:09.433Z,1.00
2018-08-17T09:55:46.782Z,1.00
2018-08-17T09:58:24.052Z,1.00
2018-08-17T10:01:05.258Z,1.00
2018-08-17T10:03:44.577Z,1.00
2018-08-17T10:06:28.975Z,1.00
2018-08-17T10:09:05.230Z,1.00
2018-08-17T10:11:37.321Z,1.00
2018-08-17T10:14:15.524Z,1.00
2018-08-17T10:16:52.772Z,1.00
2018-08-17T10:19:33.292Z,1.00
2018-08-17T10:22:12.573Z,1.00
2018-08-17T10:24:51.796Z,1.00
2018-08-17T10:27:27.382Z,1.00
2018-08-17T10:30:02.930Z,1.00
2018-08-17T10:33:14.394Z,1.00
2018-08-17T10:35:45.783Z,1.00
2018-08-17T10:38:21.835Z,1.00
2018-08-17T10:40:59.048Z,1.00
2018-08-17T10:43:34.911Z,1.00
2018-08-17T10:46:10.647Z,1.00
2018-08-17T10:48:50.458Z,1.00
2018-08-17T10:51:26.868Z,1.00
2018-08-17T10:54:06.295Z,1.00
2018-08-17T10:56:43.848Z,1.00
2018-08-17T10:59:21.879Z,1.00
2018-08-17T11:01:59.073Z,1.00
2018-08-17T11:04:36.628Z,1.00
2018-08-17T11:07:17.040Z,1.00
2018-08-17T11:09:54.235Z,1.00
2018-08-17T11:12:34.014Z,1.00
2018-08-17T11:15:11.457Z,1.00
2018-08-17T11:17:48.962Z,99.90
2018-08-17T11:20:25.081Z,99.90
2018-08-17T11:23:02.623Z,99.90
2018-08-17T11:25:40.261Z,99.90
2018-08-17T11:28:16.689Z,99.90
2018-08-17T11:30:54.864Z,99.90
2018-08-17T11:33:34.246Z,99.90
2018-08-17T11:36:12.807Z,99.90
2018-08-17T11:38:49.940Z,99.90
2018-08-17T11:41:26.934Z,99.90
2018-08-17T11:44:08.571Z,1.00
2018-08-17T11:46:45.611Z,1.00
2018-08-17T11:49:21.769Z,99.90
2018-08-17T11:52:00.669Z,99.90
2018-08-17T11:54:40.438Z,99.90
2018-08-17T11:57:16.920Z,99.90
2018-08-17T11:59:59.789Z,1.00
2018-08-17T12:02:36.721Z,99.90
2018-08-17T12:05:15.636Z,99.90
2018-08-17T12:07:51.361Z,99.90
2018-08-17T12:10:27.224Z,99.90
2018-08-17T12:13:07.832Z,1.00
2018-08-17T12:15:55.146Z,1.00
2018-08-17T12:18:31.208Z,7.80
2018-08-17T12:21:07.638Z,1.00
2018-08-17T12:23:45.108Z,99.90
2018-08-17T12:26:22.040Z,1.00
2018-08-17T12:28:58.666Z,1.00
2018-08-17T12:31:35.549Z,1.00
2018-08-17T12:34:14.579Z,1.00
2018-08-17T12:36:50.285Z,1.00
2018-08-17T12:39:26.202Z,99.90
2018-08-17T12:42:03.043Z,99.90
2018-08-17T12:44:39.286Z,99.90
2018-08-17T12:47:15.209Z,99.90
2018-08-17T12:49:51.690Z,99.90
2018-08-17T12:52:27.688Z,90.50
2018-08-17T12:55:04.436Z,16.50
2018-08-17T12:57:43.863Z,99.90
2018-08-17T13:00:20.855Z,1.00
2018-08-17T13:02:58.622Z,99.90
2018-08-17T13:05:35.638Z,99.90
2018-08-17T13:08:14.781Z,99.90
2018-08-17T13:10:51.783Z,99.90
2018-08-17T13:13:28.444Z,1.00
2018-08-17T13:16:07.717Z,1.00
2018-08-17T13:18:43.792Z,1.00
2018-08-17T13:21:19.675Z,1.00
2018-08-17T13:23:58.869Z,1.00
2018-08-17T13:26:35.733Z,1.00
2018-08-17T13:29:13.164Z,23.10
2018-08-17T13:31:50.306Z,26.30
2018-08-17T13:34:26.552Z,42.30
2018-08-17T13:37:04.101Z,1.00
2018-08-17T13:39:41.297Z,1.00
2018-08-17T13:42:18.369Z,1.00
2018-08-17T13:44:56.049Z,1.00
2018-08-17T13:47:31.935Z,1.00
2018-08-17T13:50:08.191Z,99.90
2018-08-17T13:52:45.590Z,99.90
2018-08-17T13:55:22.767Z,99.90
2018-08-17T13:57:59.935Z,5.80
2018-08-17T14:00:36.804Z,1.00
2018-08-17T14:03:12.942Z,1.00
2018-08-17T14:05:49.853Z,99.90
2018-08-17T14:08:27.102Z,99.90
2018-08-17T14:11:03.211Z,47.60
2018-08-17T14:13:38.956Z,32.90
2018-08-17T14:16:15.831Z,40.20
2018-08-17T14:18:52.842Z,13.30
2018-08-17T14:21:32.223Z,38.00
2018-08-17T14:24:09.986Z,65.50
2018-08-17T14:26:45.544Z,1.00
2018-08-17T14:29:23.551Z,1.00
2018-08-17T14:32:00.793Z,1.00
2018-08-17T14:34:38.630Z,1.00
2018-08-17T14:37:14.682Z,1.00
2018-08-17T14:39:51.450Z,1.00
2018-08-17T14:42:28.509Z,1.00
2018-08-17T14:45:06.356Z,1.00
2018-08-17T14:47:41.919Z,1.00
2018-08-17T14:50:18.541Z,99.90
2018-08-17T14:52:55.142Z,99.90
2018-08-17T14:55:34.247Z,99.90
2018-08-17T14:58:11.565Z,99.90
2018-08-17T15:00:47.283Z,99.90
2018-08-17T15:03:24.071Z,99.90
2018-08-17T15:06:05.900Z,99.90
2018-08-17T15:08:43.212Z,99.90
2018-08-17T15:11:20.733Z,99.90
2018-08-17T15:13:57.763Z,99.90
2018-08-17T15:16:35.347Z,99.90
2018-08-17T15:19:11.770Z,99.90
2018-08-17T15:21:47.890Z,99.90
2018-08-17T15:24:24.736Z,99.90
2018-08-17T15:27:01.824Z,99.90
2018-08-17T15:29:37.818Z,99.90
2018-08-17T15:32:13.808Z,99.90
2018-08-17T15:34:51.218Z,99.90
2018-08-17T15:37:27.080Z,99.90
2018-08-17T15:40:04.668Z,99.90
2018-08-17T15:42:42.129Z,99.90
2018-08-17T15:45:20.326Z,99.90
2018-08-17T15:47:56.659Z,99.90
2018-08-17T15:50:35.512Z,99.90
2018-08-17T15:53:13.022Z,99.90
2018-08-17T15:55:49.789Z,99.90
2018-08-17T15:58:26.595Z,99.90
2018-08-17T16:01:04.177Z,99.90
2018-08-17T16:03:41.430Z,99.90
2018-08-17T16:06:18.782Z,99.90
2018-08-17T16:08:55.887Z,99.90
2018-08-17T16:11:31.502Z,99.90
2018-08-17T16:14:07.981Z,99.90
2018-08-17T16:16:44.799Z,99.90
2018-08-17T16:19:21.692Z,99.90
2018-08-17T16:21:57.842Z,99.90
2018-08-17T16:24:35.466Z,99.90
2018-08-17T16:27:12.705Z,99.90
2018-08-17T16:29:50.707Z,99.90
2018-08-17T16:32:28.247Z,99.90
2018-08-17T16:35:05.655Z,99.90
2018-08-17T16:37:46.444Z,99.90
2018-08-17T16:40:25.877Z,99.90
2018-08-17T16:43:02.866Z,99.90
2018-08-17T16:45:38.470Z,99.90
2018-08-17T16:48:15.612Z,99.90
2018-08-17T16:50:54.769Z,99.90
2018-08-17T16:53:31.801Z,99.90
2018-08-17T16:56:08.515Z,99.90
2018-08-17T16:58:45.925Z,99.90
2018-08-17T17:01:22.677Z,99.90
2018-08-17T17:03:59.094Z,99.90
2018-08-17T17:06:36.279Z,99.90
2018-08-17T17:09:15.700Z,99.90
2018-08-17T17:11:52.250Z,99.90
2018-08-17T17:14:28.002Z,99.90
2018-08-17T17:17:05.091Z,99.90
2018-08-17T17:19:46.155Z,99.90
2018-08-17T17:22:24.942Z,99.90
2018-08-17T17:25:18.032Z,99.90
2018-08-17T17:27:52.260Z,99.90
2018-08-17T17:30:36.445Z,99.90
2018-08-17T17:33:13.119Z,99.90
2018-08-17T17:35:51.233Z,99.90
2018-08-17T17:38:27.113Z,99.90
2018-08-17T17:41:09.127Z,99.90
2018-08-17T17:43:45.479Z,99.90
2018-08-17T17:46:22.997Z,99.90
2018-08-17T17:48:59.808Z,99.90
2018-08-17T17:51:36.743Z,99.90
2018-08-17T17:54:20.750Z,99.90
2018-08-17T17:57:10.985Z,99.90
2018-08-17T17:59:56.815Z,99.90
2018-08-17T18:02:34.373Z,99.90
2018-08-17T18:05:10.569Z,99.90
2018-08-17T18:07:48.552Z,99.90
2018-08-17T18:10:24.366Z,99.90
2018-08-17T18:13:04.625Z,99.90
2018-08-17T18:15:42.049Z,1.00
2018-08-17T18:18:18.182Z,1.00
2018-08-17T18:20:54.230Z,1.00
2018-08-17T18:23:30.154Z,1.00
2018-08-17T18:26:10.351Z,1.00
2018-08-17T18:28:46.808Z,1.00
2018-08-17T18:31:23.432Z,1.00
2018-08-17T18:34:00.949Z,1.00
2018-08-17T18:36:38.174Z,1.00
2018-08-17T18:39:15.907Z,80.10
2018-08-17T18:41:53.611Z,99.90
2018-08-17T18:44:29.454Z,99.90
2018-08-17T18:47:08.318Z,99.90
2018-08-17T18:49:44.488Z,1.00
2018-08-17T18:52:20.275Z,1.00
2018-08-17T18:54:56.507Z,78.80
2018-08-17T18:57:32.162Z,99.90
2018-08-17T19:00:10.228Z,1.00
2018-08-17T19:02:49.081Z,99.90
2018-08-17T19:05:25.415Z,1.00
2018-08-17T19:08:06.831Z,99.90
2018-08-17T19:10:43.832Z,1.00
2018-08-17T19:13:23.341Z,60.60
2018-08-17T19:15:59.378Z,99.90
2018-08-17T19:18:38.333Z,99.90
2018-08-17T19:21:15.015Z,99.90
2018-08-17T19:23:51.404Z,1.00
2018-08-17T19:26:27.953Z,99.90
2018-08-17T19:29:04.747Z,99.90
2018-08-17T19:31:46.999Z,1.00
2018-08-17T19:34:22.573Z,1.00
2018-08-17T19:36:59.192Z,1.00
2018-08-17T19:39:35.291Z,20.10
2018-08-17T19:42:12.498Z,69.00
2018-08-17T19:44:49.865Z,99.90
2018-08-17T19:47:26.583Z,99.90
2018-08-17T19:50:03.767Z,99.90
2018-08-17T19:52:40.587Z,99.90
2018-08-17T19:55:17.789Z,99.90
2018-08-17T19:57:53.550Z,1.00
2018-08-17T20:00:29.365Z,1.00
2018-08-17T20:03:04.839Z,1.00
2018-08-17T20:05:41.278Z,1.00
2018-08-17T20:08:16.916Z,1.00
2018-08-17T20:10:54.248Z,18.10
2018-08-17T20:13:34.282Z,33.50
2018-08-17T20:16:14.570Z,42.40
2018-08-17T20:18:51.635Z,7.80
2018-08-17T20:21:27.702Z,1.00
2018-08-17T20:24:04.897Z,1.00
2018-08-17T20:26:43.618Z,2.90
2018-08-17T20:29:19.555Z,82.80
2018-08-17T20:31:56.359Z,99.90
2018-08-17T20:34:33.634Z,99.90
2018-08-17T20:37:11.041Z,99.90
2018-08-17T20:39:47.962Z,99.90
2018-08-17T20:42:25.609Z,99.90
2018-08-17T20:45:01.760Z,99.90
2018-08-17T20:47:39.576Z,99.90
2018-08-17T20:50:17.829Z,99.90
2018-08-17T20:52:58.854Z,1.00
2018-08-17T20:55:36.130Z,1.00
2018-08-17T20:58:12.036Z,1.00
2018-08-17T21:00:49.054Z,1.00
2018-08-17T21:03:24.807Z,1.00
2018-08-17T21:06:01.863Z,1.00
2018-08-17T21:08:37.341Z,1.00
2018-08-17T21:11:14.131Z,1.00
2018-08-17T21:13:50.002Z,1.00
2018-08-17T21:16:26.224Z,1.00
2018-08-17T21:19:02.879Z,35.80
2018-08-17T21:21:38.606Z,75.20
2018-08-17T21:24:14.361Z,99.90
2018-08-17T21:26:50.275Z,99.90
2018-08-17T21:29:26.990Z,99.90
2018-08-17T21:32:02.993Z,99.90
2018-08-17T21:34:39.950Z,99.90
2018-08-17T21:37:15.265Z,99.90
2018-08-17T21:39:50.974Z,99.90
2018-08-17T21:42:28.032Z,99.90
2018-08-17T21:45:05.156Z,99.90
2018-08-17T21:47:41.394Z,99.90
2018-08-17T21:50:18.375Z,99.90
2018-08-17T21:52:57.773Z,99.90
2018-08-17T21:55:33.538Z,99.90
2018-08-17T21:58:12.282Z,99.90
2018-08-17T22:00:51.882Z,99.90
2018-08-17T22:03:36.062Z,99.90
2018-08-17T22:06:11.836Z,99.90
2018-08-17T22:08:49.023Z,99.90
2018-08-17T22:11:31.634Z,99.90
2018-08-17T22:14:11.118Z,99.90
2018-08-17T22:16:46.708Z,99.90
2018-08-17T22:19:35.277Z,99.90
2018-08-17T22:22:12.469Z,99.90
2018-08-17T22:24:57.657Z,99.90
2018-08-17T22:27:29.485Z,99.90
2018-08-17T22:30:07.401Z,99.90
2018-08-17T22:32:37.925Z,99.90
2018-08-17T22:35:15.178Z,99.90
2018-08-17T22:37:54.103Z,99.90
2018-08-17T22:40:26.143Z,99.90
2018-08-17T22:43:03.159Z,99.90
2018-08-17T22:45:40.021Z,99.90
2018-08-17T22:48:15.731Z,99.90
2018-08-17T22:50:52.965Z,99.90
2018-08-17T22:53:32.059Z,99.90
2018-08-17T22:56:08.885Z,99.90
2018-08-17T22:58:48.633Z,99.90
2018-08-17T23:01:25.375Z,99.90
2018-08-17T23:04:00.991Z,99.90
2018-08-17T23:06:37.058Z,99.90
2018-08-17T23:09:13.770Z,99.90
2018-08-17T23:11:52.859Z,99.90
2018-08-17T23:14:29.886Z,99.90
2018-08-17T23:17:06.681Z,99.90
2018-08-17T23:19:42.657Z,99.90
2018-08-17T23:22:19.966Z,99.90
2018-08-17T23:24:56.758Z,99.90
2018-08-17T23:27:33.825Z,99.90
2018-08-17T23:30:10.784Z,99.90
2018-08-17T23:32:47.922Z,99.90
2018-08-17T23:35:24.107Z,99.90
2018-08-17T23:38:01.302Z,99.90
2018-08-17T23:40:37.091Z,99.90
2018-08-17T23:43:12.993Z,99.90
2018-08-17T23:45:49.207Z,99.90
2018-08-17T23:48:26.195Z,99.90
2018-08-17T23:51:03.378Z,99.90
2018-08-17T23:53:38.951Z,99.90
2018-08-17T23:56:14.887Z,99.90
2018-08-17T23:58:51.531Z,99.90
